• Join FlightAware (Why Join?)
  • Login
  • US Flag 
04:05AM EST


 

Airport Tracker/Info


-or-


 

Live Flight TrackerFlight Track Log ✈ EJA606 ✈ 05-May-2012 ✈ KEDC - KNEW

Flight Track Log - Related Links

Times and Time Zones

All times are in EDT time to prevent confusion due to time zone crossing. See the EJA606 flight status page for this flight to view local times or setup timezone preferences in your user account.

Time Position Orientation Groundspeed Altitude Reporting Facility
EDT Latitude Longitude Course Direction KTS MPH feet Rate Location/Type
05:55PM 30.3694 -97.2828 95° East 296 341 8,900  Level Houston Center
05:59PM 30.3397 -96.8797 95° East 338 389 17,800 2,220 Climbing Houston Center
06:00PM 30.3317 -96.7636 94° East 358 412 20,200 2,220 Climbing Houston Center
06:01PM 30.3236 -96.6456 94° East 364 419 22,300 1,980 Climbing Houston Center
06:02PM 30.3172 -96.5275 93° East 371 427 24,200 1,680 Climbing Houston Center
06:03PM 30.3114 -96.4019 94° East 376 433 25,700 1,380 Climbing Houston Center
06:04PM 30.3031 -96.2767 94° East 387 445 27,000 1,500 Climbing Houston Center
06:05PM 30.2950 -96.1514 95° East 387 445 28,800 1,920 Climbing Houston Center
06:06PM 30.2861 -96.0403 92° East 392 451 30,900 1,740 Climbing Houston Center
06:07PM 30.2819 -95.9078 92° East 380 437 32,300 1,200 Climbing Houston Center
06:08PM 30.2775 -95.7756 92° East 391 450 33,300 1,260 Climbing Houston Center
06:09PM 30.2733 -95.6406 92° East 403 464 34,900 2,820 Climbing Houston Center
06:10PM 30.2686 -95.5106 92° East 408 470 39,000 1,500 Climbing Houston Center
06:11PM 30.2642 -95.3758 94° East 408 470 38,000  Descending Houston Center
06:12PM 30.2572 -95.2458 93° East 408 470 39,000 480 Climbing Houston Center
06:13PM 30.2503 -95.1061 92° East 413 475 39,000  Level Houston Center
06:14PM 30.2456 -94.9667 93° East 424 488 39,000  Level Houston Center
06:15PM 30.2403 -94.8319 94° East 424 488 39,000  Level Houston Center
06:16PM 30.2328 -94.7019 94° East 418 481 39,000  Level Houston Center
06:17PM 30.2253 -94.5694 94° East 413 475 39,000  Level Houston Center
06:18PM 30.2175 -94.4442 93° East 400 460 39,000  Level Houston Center
06:19PM 30.2100 -94.3022 94° East 395 455 39,000  Level Houston Center
06:20PM 30.2019 -94.1747 93° East 395 455 39,000  Level Houston Center
06:21PM 30.1958 -94.0472 94° East 401 461 39,000  Level Houston Center
06:22PM 30.1878 -93.9172 94° East 401 461 39,000  Level Houston Center
06:23PM 30.1794 -93.7872 94° East 407 468 39,000  Level Houston Center
06:24PM 30.1708 -93.6550 94° East 407 468 39,000  Level Houston Center
06:25PM 30.1625 -93.5203 94° East 412 474 39,000  Level Houston Center
06:26PM 30.1536 -93.3881 93° East 412 474 39,000  Level Houston Center
06:27PM 30.1469 -93.2558 93° East 412 474 39,000  Level Houston Center
06:28PM 30.1400 -93.1236 87° East 407 468 39,000  Level Houston Center
06:29PM 30.1456 -92.9942 86° East 407 468 39,000  Level Houston Center
06:30PM 30.1531 -92.8597 87° East 402 463 39,000  Level Houston Center
06:31PM 30.1583 -92.7300 87° East 402 463 39,000  Level Houston Center
06:32PM 30.1636 -92.6003 85° East 402 463 39,000 -300 Level Houston Center
06:33PM 30.1728 -92.4683 87° East 402 463 38,500 -1,200 Descending Houston Center
06:34PM 30.1797 -92.3314 88° East 408 470 36,600 -2,100 Descending Houston Center
06:35PM 30.1844 -92.1872 87° East 428 493 34,400 -2,400 Descending Houston Center
06:36PM 30.1914 -92.0408 93° East 440 506 31,800 -2,580 Descending Houston Center
06:37PM 30.1853 -91.8942 95° East 440 506 29,300 -2,460 Descending Houston Center
06:38PM 30.1750 -91.7522 96° East 445 512 26,900 -2,520 Descending Houston Center
06:39PM 30.1625 -91.6106 94° East 445 512 24,300 -2,580 Descending Houston Center
06:40PM 30.1542 -91.4736 95° East 440 506 21,800 -2,460 Descending Houston Center
06:41PM 30.1433 -91.3417 94° East 429 494 19,400 -2,460 Descending Houston Center
06:42PM 30.1347 -91.2144 87° East 408 470 16,900 -2,640 Descending Houston Center
06:42PM 30.1386 -91.1375 84° East 391 450 15,200 -1,980 Descending Houston Center
06:43PM 30.1486 -91.0172 91° East 382 440 13,700 -1,320 Descending Houston Center
06:45PM 30.1458 -90.8781 96° East 367 422 12,500 -1,080 Descending Houston Center
06:46PM 30.1367 -90.7700 98° East 340 391 11,500 -1,200 Descending Houston Center
06:46PM 30.1256 -90.6742 97° East 326 375 10,300 -1,740 Descending Houston Center
06:47PM 30.1167 -90.5878 98° East 280 322 8,200 -2,040 Descending Houston Center
06:49PM 30.1056 -90.4989 87° East 277 319 6,200 -1,800 Descending Houston Center
06:50PM 30.1089 -90.4125 69° East 274 315 4,600 -1,620 Descending Houston Center
06:51PM 30.1353 -90.3331 63° Northeast 260 299 3,000 -1,320 Descending Houston Center
06:52PM 30.1658 -90.2631 86° East 256 295 2,000 -540 Descending Houston Center
06:53PM 30.1711 -90.1811 113° Southeast 255 293 2,000  Level Houston Center
06:54PM 30.1389 -90.0928 120° Southeast 247 284 2,000 -360 Level Houston Center
06:55PM 30.1111 -90.0381 168° South 208 239 1,300 -720 Descending Houston Center
06:56PM 30.0733 -90.0289 173° South 159 183 500 -600 Descending Houston Center
06:57PM 30.0422 -90.0247 274° West 133 153 100 -420 Descending Houston Center
07:04PM 30.0864 -90.8807 94° East  Level Estimated
07:05PM 30.0333 -90.0167 312° West  Level FlightAware Approximate
07:06PM 30.1022 -90.1045 312° West  Level Estimated